createdAt,value
2023-03-06T00:00:50.428Z,64.73
2023-03-06T00:01:52.357Z,65.43
2023-03-06T00:02:55.190Z,65.26
2023-03-06T00:03:58.089Z,64.79
2023-03-06T00:05:00.944Z,65.30
2023-03-06T00:06:03.000Z,65.66
2023-03-06T00:07:07.351Z,65.48
2023-03-06T00:08:09.343Z,64.62
2023-03-06T00:09:12.195Z,64.80
2023-03-06T00:10:15.455Z,65.17
2023-03-06T00:11:18.396Z,64.89
2023-03-06T00:12:20.234Z,65.15
2023-03-06T00:13:26.516Z,65.32
2023-03-06T00:14:28.361Z,64.78
2023-03-06T00:15:31.194Z,64.68
2023-03-06T00:16:33.189Z,65.34
2023-03-06T00:17:36.197Z,64.85
2023-03-06T00:18:38.125Z,65.44
2023-03-06T00:19:40.947Z,65.40
2023-03-06T00:20:44.400Z,64.95
2023-03-06T00:21:47.230Z,65.36
2023-03-06T00:22:51.038Z,65.22
2023-03-06T00:23:53.926Z,65.19
2023-03-06T00:24:55.822Z,65.58
2023-03-06T00:25:58.691Z,65.35
2023-03-06T00:27:00.518Z,64.71
2023-03-06T00:28:03.481Z,64.82
2023-03-06T00:29:05.578Z,65.51
2023-03-06T00:30:11.921Z,65.27
2023-03-06T00:31:13.815Z,65.28
2023-03-06T00:32:16.782Z,65.30
2023-03-06T00:33:18.663Z,64.44
2023-03-06T00:34:21.690Z,65.63
2023-03-06T00:35:23.927Z,65.11
2023-03-06T00:36:26.744Z,65.09
2023-03-06T00:37:28.625Z,65.59
2023-03-06T00:38:35.541Z,64.67
2023-03-06T00:39:37.419Z,65.19
2023-03-06T00:40:40.318Z,64.75
2023-03-06T00:41:42.251Z,64.73
2023-03-06T00:42:45.829Z,65.59
2023-03-06T00:43:47.696Z,64.97
2023-03-06T00:44:50.497Z,64.73
2023-03-06T00:45:52.352Z,65.03
2023-03-06T00:46:55.277Z,64.55
2023-03-06T00:47:57.183Z,65.35
2023-03-06T00:49:00.792Z,65.12
2023-03-06T00:50:03.058Z,64.97
2023-03-06T00:51:07.101Z,64.92
2023-03-06T00:52:08.963Z,65.04
2023-03-06T00:53:13.253Z,65.23
2023-03-06T00:54:17.174Z,64.69
2023-03-06T00:55:20.051Z,64.77
2023-03-06T00:56:21.931Z,65.25
2023-03-06T00:57:25.596Z,65.50
2023-03-06T00:58:28.405Z,65.65
2023-03-06T00:59:35.956Z,65.83
2023-03-06T01:00:38.426Z,65.07
2023-03-06T01:01:42.594Z,65.05
2023-03-06T01:02:44.522Z,65.58
2023-03-06T01:03:47.385Z,64.88
2023-03-06T01:04:49.354Z,64.50
2023-03-06T01:05:52.205Z,65.77
2023-03-06T01:06:54.052Z,65.64
2023-03-06T01:07:56.991Z,65.64
2023-03-06T01:08:59.250Z,65.09
2023-03-06T01:10:03.542Z,64.95
2023-03-06T01:11:05.812Z,64.87
2023-03-06T01:12:09.346Z,64.78
2023-03-06T01:13:11.230Z,64.93
2023-03-06T01:14:14.300Z,64.78
2023-03-06T01:15:16.237Z,64.68
2023-03-06T01:16:21.215Z,65.68
2023-03-06T01:17:23.708Z,65.84
2023-03-06T01:18:26.526Z,65.39
2023-03-06T01:19:28.481Z,64.95
2023-03-06T01:20:31.903Z,64.90
2023-03-06T01:21:33.996Z,65.47
2023-03-06T01:22:36.772Z,65.73
2023-03-06T01:23:38.600Z,64.91
2023-03-06T01:24:41.579Z,64.83
2023-03-06T01:25:45.021Z,65.15
2023-03-06T01:26:47.939Z,64.85
2023-03-06T01:27:49.794Z,65.50
2023-03-06T01:28:53.181Z,65.60
2023-03-06T01:29:55.290Z,65.10
2023-03-06T01:30:58.671Z,64.80
2023-03-06T01:32:00.657Z,65.56
2023-03-06T01:33:03.578Z,65.24
2023-03-06T01:34:05.448Z,65.99
2023-03-06T01:35:09.271Z,65.18
2023-03-06T01:36:13.078Z,65.73
2023-03-06T01:37:16.272Z,64.98
2023-03-06T01:38:18.188Z,64.63
2023-03-06T01:39:21.029Z,65.62
2023-03-06T01:40:22.915Z,65.40
2023-03-06T01:41:27.161Z,65.55
2023-03-06T01:42:30.808Z,65.17
2023-03-06T01:43:36.907Z,65.83
2023-03-06T01:45:00.138Z,65.16
2023-03-06T01:46:26.116Z,65.81
2023-03-06T01:47:27.992Z,66.04
2023-03-06T01:48:30.917Z,65.58
2023-03-06T01:49:36.792Z,65.06
2023-03-06T01:50:39.883Z,65.00
2023-03-06T01:51:49.561Z,65.17
2023-03-06T01:52:54.522Z,65.09
2023-03-06T01:54:01.571Z,64.92
2023-03-06T01:55:08.309Z,65.71
2023-03-06T01:56:13.375Z,66.02
2023-03-06T01:57:23.375Z,65.71
2023-03-06T01:58:25.346Z,65.30
2023-03-06T01:59:30.223Z,65.47
2023-03-06T02:00:32.387Z,65.61
2023-03-06T02:01:36.108Z,65.73
2023-03-06T02:02:39.612Z,65.19
2023-03-06T02:03:46.198Z,65.50
2023-03-06T02:04:48.697Z,65.02
2023-03-06T02:05:51.689Z,65.03
2023-03-06T02:06:54.145Z,65.20
2023-03-06T02:07:58.468Z,65.91
2023-03-06T02:09:00.425Z,64.65
2023-03-06T02:10:03.528Z,65.15
2023-03-06T02:11:12.451Z,65.08
2023-03-06T02:12:20.671Z,65.20
2023-03-06T02:13:22.741Z,65.71
2023-03-06T02:14:28.725Z,65.83
2023-03-06T02:15:32.350Z,65.07
2023-03-06T02:16:35.868Z,65.92
2023-03-06T02:17:37.789Z,65.31
2023-03-06T02:18:41.766Z,65.20
2023-03-06T02:19:53.595Z,64.83
2023-03-06T02:20:58.950Z,65.92
2023-03-06T02:22:02.167Z,65.80
2023-03-06T02:23:10.353Z,65.64
2023-03-06T02:24:23.519Z,65.63
2023-03-06T02:25:34.848Z,65.73
2023-03-06T02:26:39.524Z,65.03
2023-03-06T02:27:41.895Z,65.66
2023-03-06T02:28:44.725Z,65.11
2023-03-06T02:29:47.538Z,65.74
2023-03-06T02:30:53.379Z,65.90
2023-03-06T02:31:55.912Z,65.97
2023-03-06T02:32:59.214Z,65.63
2023-03-06T02:34:03.996Z,65.82
2023-03-06T02:35:07.908Z,65.21
2023-03-06T02:36:15.531Z,65.31
2023-03-06T02:37:18.563Z,65.69
2023-03-06T02:38:24.100Z,65.20
2023-03-06T02:39:30.920Z,65.23
2023-03-06T02:40:35.477Z,65.24
2023-03-06T02:41:37.419Z,65.62
2023-03-06T02:42:47.113Z,65.84
2023-03-06T02:43:52.334Z,65.36
2023-03-06T02:44:56.934Z,65.11
2023-03-06T02:45:58.942Z,65.29
2023-03-06T02:47:02.196Z,65.23
2023-03-06T02:48:05.271Z,65.09
2023-03-06T02:49:08.201Z,66.23
2023-03-06T02:50:11.230Z,66.10
2023-03-06T02:51:14.065Z,65.28
2023-03-06T02:52:16.014Z,65.47
2023-03-06T02:53:20.244Z,65.83
2023-03-06T02:54:22.074Z,65.09
2023-03-06T02:55:25.976Z,65.20
2023-03-06T02:56:30.958Z,65.98
2023-03-06T02:57:34.130Z,66.10
2023-03-06T02:58:36.113Z,65.22
2023-03-06T02:59:39.030Z,65.11
2023-03-06T03:00:41.421Z,65.38
2023-03-06T03:01:47.784Z,65.30
2023-03-06T03:02:50.792Z,65.44
2023-03-06T03:03:52.848Z,66.18
2023-03-06T03:04:57.266Z,65.33
2023-03-06T03:06:00.226Z,65.20
2023-03-06T03:07:08.218Z,65.26
2023-03-06T03:08:12.862Z,65.80
2023-03-06T03:09:15.796Z,65.31
2023-03-06T03:10:18.040Z,66.25
2023-03-06T03:11:22.000Z,65.99
2023-03-06T03:12:25.380Z,65.50
2023-03-06T03:13:28.244Z,65.24
2023-03-06T03:14:30.434Z,65.93
2023-03-06T03:15:33.371Z,65.83
2023-03-06T03:16:36.277Z,65.24
2023-03-06T03:17:42.240Z,65.60
2023-03-06T03:18:45.008Z,65.33
2023-03-06T03:19:48.114Z,65.37
2023-03-06T03:20:50.167Z,64.95
2023-03-06T03:21:53.027Z,66.08
2023-03-06T03:22:57.879Z,65.86
2023-03-06T03:24:00.685Z,65.48
2023-03-06T03:25:04.424Z,65.90
2023-03-06T03:26:09.389Z,65.55
2023-03-06T03:27:14.603Z,65.45
2023-03-06T03:28:20.288Z,65.28
2023-03-06T03:29:22.245Z,65.27
2023-03-06T03:30:25.054Z,65.87
2023-03-06T03:31:27.189Z,65.94
2023-03-06T03:32:30.657Z,65.83
2023-03-06T03:33:32.616Z,65.04
2023-03-06T03:34:35.725Z,65.70
2023-03-06T03:35:38.010Z,66.14
2023-03-06T03:36:41.046Z,65.30
2023-03-06T03:37:45.067Z,65.45
2023-03-06T03:38:48.499Z,65.63
2023-03-06T03:39:50.453Z,66.21
2023-03-06T03:40:53.450Z,66.20
2023-03-06T03:41:55.483Z,65.67
2023-03-06T03:42:58.698Z,66.08
2023-03-06T03:44:02.171Z,66.37
2023-03-06T03:45:05.489Z,65.66
2023-03-06T03:46:07.470Z,65.48
2023-03-06T03:47:10.470Z,65.33
2023-03-06T03:48:12.493Z,66.22
2023-03-06T03:49:15.625Z,66.38
2023-03-06T03:50:19.376Z,66.54
2023-03-06T03:51:22.976Z,65.29
2023-03-06T03:52:28.452Z,65.44
2023-03-06T03:53:31.354Z,66.35
2023-03-06T03:54:33.874Z,66.24
2023-03-06T03:55:36.826Z,65.18
2023-03-06T03:56:40.701Z,65.89
2023-03-06T03:57:49.020Z,65.73
2023-03-06T03:58:51.364Z,66.31
2023-03-06T03:59:55.920Z,66.17
2023-03-06T04:01:16.766Z,65.90
2023-03-06T04:02:21.617Z,65.46
2023-03-06T04:03:32.947Z,65.68
2023-03-06T04:04:35.029Z,65.71
2023-03-06T04:05:37.971Z,66.13
2023-03-06T04:06:42.074Z,65.69
2023-03-06T04:07:45.253Z,65.48
2023-03-06T04:08:47.334Z,65.73
2023-03-06T04:09:50.460Z,66.39
2023-03-06T04:10:54.274Z,65.46
2023-03-06T04:11:58.614Z,65.71
2023-03-06T04:13:00.841Z,65.54
2023-03-06T04:14:04.479Z,66.19
2023-03-06T04:15:09.387Z,65.52
2023-03-06T04:16:12.261Z,66.50
2023-03-06T04:17:15.516Z,65.56
2023-03-06T04:18:19.498Z,66.14
2023-03-06T04:19:21.430Z,66.18
2023-03-06T04:20:26.018Z,65.89
2023-03-06T04:21:27.995Z,66.41
2023-03-06T04:22:31.140Z,65.61
2023-03-06T04:23:33.163Z,65.66
2023-03-06T04:24:36.285Z,65.63
2023-03-06T04:25:38.527Z,65.69
2023-03-06T04:26:43.508Z,65.78
2023-03-06T04:27:45.801Z,65.88
2023-03-06T04:28:49.099Z,66.21
2023-03-06T04:29:51.391Z,65.41
2023-03-06T04:30:55.667Z,65.64
2023-03-06T04:31:57.945Z,65.79
2023-03-06T04:33:01.190Z,65.58
2023-03-06T04:34:03.228Z,66.15
2023-03-06T04:35:07.088Z,65.67
2023-03-06T04:36:26.480Z,65.83
2023-03-06T04:37:31.096Z,65.39
2023-03-06T04:38:35.171Z,66.30
2023-03-06T04:39:39.490Z,65.59
2023-03-06T04:40:44.562Z,66.27
2023-03-06T04:41:46.823Z,66.32
2023-03-06T04:42:49.880Z,65.70
2023-03-06T04:43:51.823Z,65.60
2023-03-06T04:44:54.566Z,65.38
2023-03-06T04:45:58.177Z,65.91
2023-03-06T04:47:01.031Z,65.60
2023-03-06T04:48:02.948Z,65.61
2023-03-06T04:49:05.894Z,65.58
2023-03-06T04:50:09.144Z,65.57
2023-03-06T04:51:13.209Z,65.88
2023-03-06T04:52:15.030Z,65.63
2023-03-06T04:53:19.569Z,65.34
2023-03-06T04:54:21.673Z,65.47
2023-03-06T04:55:24.522Z,66.19
2023-03-06T04:56:26.734Z,66.22
2023-03-06T04:57:29.598Z,66.33
2023-03-06T04:58:31.612Z,65.36
2023-03-06T04:59:34.440Z,65.49
2023-03-06T05:00:36.321Z,65.73
2023-03-06T05:01:40.642Z,65.21
2023-03-06T05:02:43.060Z,66.53
2023-03-06T05:03:45.925Z,65.55
2023-03-06T05:04:47.776Z,66.27
2023-03-06T05:05:50.803Z,66.28
2023-03-06T05:06:52.623Z,66.13
2023-03-06T05:07:56.083Z,65.50
2023-03-06T05:08:58.062Z,65.55
2023-03-06T05:10:01.089Z,66.07
2023-03-06T05:11:03.066Z,65.66
2023-03-06T05:12:06.244Z,66.42
2023-03-06T05:13:08.235Z,66.06
2023-03-06T05:14:11.158Z,66.33
2023-03-06T05:15:13.945Z,65.80
2023-03-06T05:16:16.890Z,65.97
2023-03-06T05:17:20.328Z,66.14
2023-03-06T05:18:23.172Z,66.21
2023-03-06T05:19:25.101Z,65.80
2023-03-06T05:20:28.666Z,66.15
2023-03-06T05:21:30.518Z,66.28
2023-03-06T05:22:34.065Z,66.15
2023-03-06T05:23:38.515Z,65.78
2023-03-06T05:24:42.352Z,66.67
2023-03-06T05:25:44.144Z,65.63
2023-03-06T05:26:46.933Z,66.62
2023-03-06T05:27:49.000Z,66.01
2023-03-06T05:28:51.792Z,65.63
2023-03-06T05:29:54.686Z,65.66
2023-03-06T05:30:57.519Z,65.84
2023-03-06T05:31:59.459Z,65.44
2023-03-06T05:33:03.708Z,66.33
2023-03-06T05:34:05.736Z,65.54
2023-03-06T05:35:09.099Z,66.39
2023-03-06T05:36:11.619Z,66.39
2023-03-06T05:37:14.488Z,66.38
2023-03-06T05:38:17.103Z,66.41
2023-03-06T05:39:19.956Z,66.07
2023-03-06T05:40:23.068Z,66.24
2023-03-06T05:41:24.954Z,65.82
2023-03-06T05:42:28.725Z,66.37
2023-03-06T05:43:30.672Z,65.51
2023-03-06T05:44:34.264Z,66.23
2023-03-06T05:45:36.410Z,66.26
2023-03-06T05:46:39.420Z,65.68
2023-03-06T05:47:41.353Z,65.28
2023-03-06T05:48:47.198Z,66.22
2023-03-06T05:49:49.104Z,65.42
2023-03-06T05:50:56.587Z,65.53
2023-03-06T05:51:58.453Z,65.42
2023-03-06T05:53:03.943Z,65.51
2023-03-06T05:54:06.884Z,66.51
2023-03-06T05:55:11.641Z,66.14
2023-03-06T05:56:14.500Z,65.58
2023-03-06T05:57:16.486Z,65.49
2023-03-06T05:58:19.329Z,65.60
2023-03-06T05:59:21.373Z,65.51
2023-03-06T06:00:25.130Z,65.72
2023-03-06T06:01:28.461Z,66.38
2023-03-06T06:02:31.559Z,66.49
2023-03-06T06:03:33.625Z,65.87
2023-03-06T06:04:37.843Z,66.31
2023-03-06T06:05:40.199Z,65.21
2023-03-06T06:06:42.993Z,65.77
2023-03-06T06:07:44.818Z,65.33
2023-03-06T06:08:47.713Z,65.48
2023-03-06T06:09:53.202Z,65.46
2023-03-06T06:10:56.382Z,65.32
2023-03-06T06:12:00.695Z,65.92
2023-03-06T06:13:03.550Z,65.40
2023-03-06T06:14:05.376Z,66.24
2023-03-06T06:15:09.129Z,65.72
2023-03-06T06:16:12.625Z,65.50
2023-03-06T06:17:16.612Z,65.42
2023-03-06T06:18:18.743Z,65.30
2023-03-06T06:19:22.352Z,66.23
2023-03-06T06:20:27.477Z,65.61
2023-03-06T06:21:29.374Z,65.77
2023-03-06T06:22:32.205Z,65.88
2023-03-06T06:23:34.662Z,65.31
2023-03-06T06:24:37.505Z,65.84
2023-03-06T06:25:39.636Z,65.92
2023-03-06T06:26:42.487Z,65.48
2023-03-06T06:27:45.321Z,65.39
2023-03-06T06:28:47.159Z,66.00
2023-03-06T06:29:52.287Z,66.00
2023-03-06T06:30:54.240Z,73.22
2023-03-06T06:31:57.678Z,68.05
2023-03-06T06:33:01.885Z,65.94
2023-03-06T06:34:04.618Z,65.24
2023-03-06T06:35:08.241Z,65.96
2023-03-06T06:36:19.384Z,65.54
2023-03-06T06:37:22.334Z,65.59
2023-03-06T06:38:24.172Z,65.04
2023-03-06T06:39:27.066Z,65.05
2023-03-06T06:40:29.592Z,65.04
2023-03-06T06:41:51.008Z,65.36
2023-03-06T06:42:55.460Z,65.02
2023-03-06T06:43:59.070Z,65.66
2023-03-06T06:45:02.109Z,65.57
2023-03-06T06:46:28.311Z,65.13
2023-03-06T06:47:27.174Z,64.96
2023-03-06T06:48:29.120Z,64.86
2023-03-06T06:49:32.377Z,65.61
2023-03-06T06:50:34.285Z,65.60
2023-03-06T06:51:38.492Z,65.20
2023-03-06T06:52:41.997Z,65.66
2023-03-06T06:53:44.573Z,65.86
2023-03-06T06:54:47.446Z,65.06
2023-03-06T06:55:49.406Z,65.23
2023-03-06T06:56:52.327Z,65.85
2023-03-06T06:57:54.196Z,65.71
2023-03-06T06:59:15.379Z,65.25
2023-03-06T07:00:20.348Z,65.64
2023-03-06T07:01:22.688Z,64.97
2023-03-06T07:02:25.598Z,65.48
2023-03-06T07:03:27.488Z,65.36
2023-03-06T07:04:30.291Z,65.60
2023-03-06T07:05:33.075Z,65.85
2023-03-06T07:06:34.967Z,65.78
2023-03-06T07:07:39.306Z,66.09
2023-03-06T07:08:41.154Z,66.31
2023-03-06T07:09:43.976Z,65.48
2023-03-06T07:10:45.824Z,65.40
2023-03-06T07:11:48.794Z,65.74
2023-03-06T07:12:51.743Z,65.74
2023-03-06T07:13:53.666Z,65.50
2023-03-06T07:14:59.551Z,66.76
2023-03-06T07:16:01.609Z,66.13
2023-03-06T07:17:04.735Z,66.45
2023-03-06T07:18:06.566Z,66.16
2023-03-06T07:19:09.465Z,66.00
2023-03-06T07:20:12.663Z,66.19
2023-03-06T07:21:15.634Z,66.13
2023-03-06T07:22:17.519Z,65.90
2023-03-06T07:23:21.962Z,66.67
2023-03-06T07:24:23.856Z,66.18
2023-03-06T07:25:26.846Z,66.16
2023-03-06T07:26:32.723Z,66.96
2023-03-06T07:27:36.170Z,66.23
2023-03-06T07:28:51.571Z,66.56
2023-03-06T07:29:54.181Z,66.58
2023-03-06T07:30:57.064Z,66.71
2023-03-06T07:32:00.109Z,66.28
2023-03-06T07:33:02.926Z,66.48
2023-03-06T07:34:05.845Z,66.23
2023-03-06T07:35:19.674Z,66.41
2023-03-06T07:36:24.793Z,66.43
2023-03-06T07:37:28.506Z,66.19
2023-03-06T07:38:33.364Z,66.22
2023-03-06T07:39:35.226Z,66.49
2023-03-06T07:40:38.873Z,66.00
2023-03-06T07:41:41.808Z,66.39
2023-03-06T07:42:43.843Z,66.18
2023-03-06T07:43:49.309Z,65.98
2023-03-06T07:44:51.951Z,66.17
2023-03-06T07:45:58.836Z,66.17
2023-03-06T07:47:01.877Z,66.23
2023-03-06T07:48:06.442Z,66.48
2023-03-06T07:49:09.287Z,67.27
2023-03-06T07:50:12.656Z,66.85
2023-03-06T07:51:17.605Z,66.69
2023-03-06T07:52:19.483Z,67.29
2023-03-06T07:53:22.716Z,66.98
2023-03-06T07:54:26.978Z,66.99
2023-03-06T07:55:29.815Z,66.25
2023-03-06T07:56:34.904Z,66.71
2023-03-06T07:57:37.447Z,68.08
2023-03-06T07:58:42.545Z,66.72
2023-03-06T07:59:44.495Z,68.23
2023-03-06T08:00:47.835Z,68.04
2023-03-06T08:01:50.901Z,67.87
2023-03-06T08:02:53.852Z,68.00
2023-03-06T08:03:55.819Z,67.75
2023-03-06T08:04:58.763Z,68.47
2023-03-06T08:06:08.871Z,68.32
2023-03-06T08:07:13.146Z,67.56
2023-03-06T08:08:16.336Z,67.29
2023-03-06T08:09:18.203Z,68.54
2023-03-06T08:10:22.643Z,67.31
2023-03-06T08:11:27.323Z,68.44
2023-03-06T08:12:30.172Z,67.57
2023-03-06T08:13:33.494Z,67.76
2023-03-06T08:14:37.866Z,67.69
2023-03-06T08:15:40.729Z,67.35
2023-03-06T08:16:43.569Z,68.16
2023-03-06T08:17:46.469Z,68.29
2023-03-06T08:18:49.604Z,67.79
2023-03-06T08:19:52.429Z,67.12
2023-03-06T08:21:02.031Z,67.32
2023-03-06T08:22:05.938Z,67.42
2023-03-06T08:23:08.813Z,68.20
2023-03-06T08:24:13.195Z,68.45
2023-03-06T08:25:15.156Z,67.96
2023-03-06T08:26:21.947Z,67.92
2023-03-06T08:27:25.092Z,67.74
2023-03-06T08:28:27.114Z,67.35
2023-03-06T08:29:31.557Z,68.22
2023-03-06T08:30:35.389Z,67.72
2023-03-06T08:31:40.363Z,67.69
2023-03-06T08:32:43.298Z,67.21
2023-03-06T08:33:45.283Z,67.92
2023-03-06T08:34:48.104Z,67.20
2023-03-06T08:35:50.979Z,67.27
2023-03-06T08:36:55.381Z,68.28
2023-03-06T08:37:57.219Z,67.82
2023-03-06T08:39:00.928Z,68.44
2023-03-06T08:40:06.113Z,67.98
2023-03-06T08:41:09.815Z,68.25
2023-03-06T08:42:14.425Z,69.01
2023-03-06T08:43:17.310Z,68.02
2023-03-06T08:44:20.141Z,68.08
2023-03-06T08:45:22.094Z,67.89
2023-03-06T08:46:27.535Z,67.90
2023-03-06T08:47:29.529Z,68.52
2023-03-06T08:48:33.272Z,67.70
2023-03-06T08:49:38.292Z,67.73
2023-03-06T08:50:42.326Z,67.87
2023-03-06T08:51:44.218Z,67.55
2023-03-06T08:52:47.087Z,67.92
2023-03-06T08:53:50.136Z,68.50
2023-03-06T08:54:53.024Z,68.17
2023-03-06T08:55:54.971Z,68.15
2023-03-06T08:56:57.824Z,68.87
2023-03-06T08:58:02.073Z,69.04
2023-03-06T08:59:06.600Z,68.67
2023-03-06T09:00:11.139Z,68.56
2023-03-06T09:01:15.937Z,68.45
2023-03-06T09:02:18.808Z,68.97
2023-03-06T09:03:21.829Z,68.85
2023-03-06T09:04:24.715Z,69.15
2023-03-06T09:05:26.979Z,68.60
2023-03-06T09:06:32.848Z,69.16
2023-03-06T09:07:36.274Z,69.13
2023-03-06T09:08:38.409Z,69.12
2023-03-06T09:09:41.325Z,68.48
2023-03-06T09:10:46.920Z,69.07
2023-03-06T09:11:51.202Z,68.33
2023-03-06T09:12:55.432Z,68.87
2023-03-06T09:13:59.375Z,68.42
2023-03-06T09:15:05.189Z,68.54
2023-03-06T09:16:07.390Z,68.12
2023-03-06T09:17:10.291Z,67.86
2023-03-06T09:18:12.198Z,67.82
2023-03-06T09:19:15.139Z,68.11
2023-03-06T09:20:17.132Z,67.93
2023-03-06T09:21:20.218Z,67.73
2023-03-06T09:22:23.106Z,68.00
2023-03-06T09:23:25.995Z,68.30
2023-03-06T09:24:29.261Z,68.02
2023-03-06T09:25:32.102Z,67.71
2023-03-06T09:26:45.705Z,67.99
2023-03-06T09:28:08.687Z,68.12
2023-03-06T09:29:16.280Z,68.07
2023-03-06T09:30:19.901Z,67.83
2023-03-06T09:31:22.800Z,68.18
2023-03-06T09:32:26.839Z,67.74
2023-03-06T09:33:31.267Z,68.20
2023-03-06T09:34:34.141Z,67.98
2023-03-06T09:35:37.137Z,68.07
2023-03-06T09:36:55.527Z,67.72
2023-03-06T09:37:59.849Z,67.39
2023-03-06T09:39:03.045Z,67.59
2023-03-06T09:40:06.374Z,67.83
2023-03-06T09:41:20.088Z,67.94
2023-03-06T09:42:24.322Z,67.48
2023-03-06T09:43:30.148Z,67.49
2023-03-06T09:44:36.937Z,67.79
2023-03-06T09:45:38.801Z,67.42
2023-03-06T09:46:57.952Z,67.25
2023-03-06T09:48:05.933Z,66.79
2023-03-06T09:49:19.769Z,66.28
2023-03-06T09:50:33.665Z,66.27
2023-03-06T09:51:48.814Z,66.27
2023-03-06T09:53:04.123Z,66.06
2023-03-06T09:54:13.384Z,65.33
2023-03-06T09:55:18.771Z,66.08
2023-03-06T09:56:30.054Z,65.93
2023-03-06T09:57:36.752Z,65.38
2023-03-06T09:58:45.005Z,65.88
2023-03-06T09:59:53.484Z,65.54
2023-03-06T10:01:01.145Z,65.51
2023-03-06T10:02:15.992Z,66.29
2023-03-06T10:03:25.780Z,65.53
2023-03-06T10:04:37.979Z,65.45
2023-03-06T10:05:44.091Z,64.71
2023-03-06T10:06:50.337Z,65.01
2023-03-06T10:07:58.140Z,65.51
2023-03-06T10:09:04.808Z,65.56
2023-03-06T10:10:15.088Z,65.69
2023-03-06T10:11:23.733Z,65.00
2023-03-06T10:12:28.577Z,65.16
2023-03-06T10:13:38.261Z,64.88
2023-03-06T10:14:48.477Z,64.38
2023-03-06T10:15:59.756Z,64.17
2023-03-06T10:17:03.101Z,64.64
2023-03-06T10:18:06.344Z,64.37
2023-03-06T10:19:14.133Z,64.30
2023-03-06T10:20:19.697Z,64.36
2023-03-06T10:21:38.652Z,64.77
2023-03-06T10:23:00.066Z,64.29
2023-03-06T10:24:18.214Z,64.26
2023-03-06T10:25:28.018Z,64.70
2023-03-06T10:26:36.332Z,64.88
2023-03-06T10:27:47.080Z,65.13
2023-03-06T10:29:04.177Z,64.46
2023-03-06T10:30:23.059Z,64.44
2023-03-06T10:31:29.369Z,64.34
2023-03-06T10:32:48.680Z,64.73
2023-03-06T10:33:56.373Z,64.04
2023-03-06T10:35:00.968Z,64.37
2023-03-06T10:36:04.700Z,63.97
2023-03-06T10:37:18.156Z,64.10
2023-03-06T10:38:23.408Z,64.33
2023-03-06T10:39:25.324Z,63.78
2023-03-06T10:40:36.433Z,64.18
2023-03-06T10:41:39.342Z,64.71
2023-03-06T10:42:41.277Z,63.89
2023-03-06T10:43:46.339Z,64.05
2023-03-06T10:44:48.305Z,64.92
2023-03-06T10:45:53.441Z,63.52
2023-03-06T10:46:57.730Z,63.27
2023-03-06T10:48:11.152Z,63.49
2023-03-06T10:49:26.046Z,63.06
2023-03-06T10:50:32.264Z,63.38
2023-03-06T10:51:35.544Z,63.28
2023-03-06T10:52:38.463Z,63.84
2023-03-06T10:53:49.844Z,63.39
2023-03-06T10:54:52.719Z,64.16
2023-03-06T10:55:56.449Z,63.98
2023-03-06T10:56:59.796Z,64.48
2023-03-06T10:58:19.704Z,63.69
2023-03-06T10:59:25.161Z,64.34
2023-03-06T11:00:35.970Z,64.32
2023-03-06T11:01:39.729Z,64.29
2023-03-06T11:02:42.992Z,64.16
2023-03-06T11:03:46.449Z,65.04
2023-03-06T11:04:56.083Z,64.85
2023-03-06T11:06:05.322Z,64.34
2023-03-06T11:07:15.430Z,64.53
2023-03-06T11:08:23.320Z,64.51
2023-03-06T11:09:26.350Z,64.94
2023-03-06T11:10:34.129Z,64.66
2023-03-06T11:11:38.049Z,64.13
2023-03-06T11:12:43.752Z,63.99
2023-03-06T11:13:58.157Z,64.74
2023-03-06T11:15:17.570Z,64.45
2023-03-06T11:16:25.948Z,64.74
2023-03-06T11:17:29.543Z,64.51
2023-03-06T11:18:39.994Z,64.06
2023-03-06T11:19:42.016Z,63.97
2023-03-06T11:20:52.564Z,64.55
2023-03-06T11:22:03.504Z,64.50
2023-03-06T11:23:08.308Z,64.62
2023-03-06T11:24:19.710Z,64.15
2023-03-06T11:25:25.552Z,63.98
2023-03-06T11:26:40.620Z,63.69
2023-03-06T11:27:44.985Z,63.28
2023-03-06T11:28:58.153Z,63.46
2023-03-06T11:30:05.442Z,64.15
2023-03-06T11:31:14.657Z,64.95
2023-03-06T11:32:23.563Z,63.68
2023-03-06T11:33:31.792Z,62.97
2023-03-06T11:34:46.162Z,63.51
2023-03-06T11:35:57.871Z,63.51
2023-03-06T11:37:07.053Z,63.53
2023-03-06T11:38:18.809Z,64.48
2023-03-06T11:39:30.567Z,64.54
2023-03-06T11:40:40.834Z,64.43
2023-03-06T11:41:52.686Z,63.74
2023-03-06T11:43:03.721Z,64.49
2023-03-06T11:44:16.391Z,64.46
2023-03-06T11:45:25.160Z,63.65
2023-03-06T11:46:32.191Z,64.36
2023-03-06T11:47:39.693Z,64.27
2023-03-06T11:48:47.582Z,63.81
2023-03-06T11:49:56.517Z,63.95
2023-03-06T11:51:07.514Z,64.15
2023-03-06T11:52:19.920Z,64.87
2023-03-06T11:53:26.062Z,64.37
2023-03-06T11:54:27.902Z,64.36
2023-03-06T11:55:41.120Z,63.96
2023-03-06T11:56:54.727Z,63.86
2023-03-06T11:58:24.825Z,63.86
2023-03-06T12:00:02.903Z,64.13
2023-03-06T12:01:12.846Z,63.85
2023-03-06T12:02:25.036Z,64.80
2023-03-06T12:03:50.539Z,64.68
2023-03-06T12:05:09.125Z,64.23
2023-03-06T12:06:22.830Z,63.68
2023-03-06T12:07:32.253Z,64.54
2023-03-06T12:08:45.567Z,63.99
2023-03-06T12:09:55.510Z,64.22
2023-03-06T12:11:05.369Z,64.15
2023-03-06T12:12:23.048Z,64.29
2023-03-06T12:13:43.109Z,63.90
2023-03-06T12:15:00.836Z,63.98
2023-03-06T12:16:24.409Z,64.15
2023-03-06T12:17:38.473Z,64.85
2023-03-06T12:18:52.631Z,64.08
2023-03-06T12:20:25.873Z,64.02
2023-03-06T12:21:35.210Z,64.15
2023-03-06T12:22:57.915Z,64.13
2023-03-06T12:24:24.362Z,63.84
2023-03-06T12:25:35.179Z,74.88
2023-03-06T12:26:52.654Z,66.06
2023-03-06T12:28:07.616Z,65.39
2023-03-06T12:29:27.983Z,64.27
2023-03-06T12:30:42.881Z,63.99
2023-03-06T12:32:04.058Z,63.22
2023-03-06T12:33:18.216Z,62.98
2023-03-06T12:34:37.897Z,63.62
2023-03-06T12:35:56.487Z,64.08
2023-03-06T12:37:11.927Z,64.35
2023-03-06T12:38:36.522Z,63.83
2023-03-06T12:39:53.733Z,63.33
2023-03-06T12:41:08.917Z,63.59
2023-03-06T12:42:27.012Z,63.66
2023-03-06T12:43:47.404Z,63.87
2023-03-06T12:45:10.766Z,62.97
2023-03-06T12:46:16.105Z,62.84
2023-03-06T12:47:22.385Z,63.03
2023-03-06T12:48:29.413Z,63.00
2023-03-06T12:49:38.622Z,63.19
2023-03-06T12:50:45.379Z,62.65
2023-03-06T12:51:49.945Z,62.07
2023-03-06T12:52:54.591Z,62.39
2023-03-06T12:53:59.859Z,63.48
2023-03-06T12:55:07.163Z,63.34
2023-03-06T12:56:12.110Z,63.42
2023-03-06T12:57:15.183Z,63.19
2023-03-06T12:58:52.437Z,62.92
2023-03-06T12:59:56.183Z,62.02
2023-03-06T13:01:04.877Z,62.40
2023-03-06T13:02:41.256Z,62.49
2023-03-06T13:04:02.390Z,62.76
2023-03-06T13:05:38.083Z,61.99
2023-03-06T13:06:57.354Z,61.88
2023-03-06T13:08:14.773Z,66.19
2023-03-06T13:09:22.404Z,62.84
2023-03-06T13:10:27.775Z,62.08
2023-03-06T13:12:06.546Z,61.96
2023-03-06T13:13:31.844Z,61.90
2023-03-06T13:14:54.765Z,62.39
2023-03-06T13:16:13.592Z,62.08
2023-03-06T13:17:27.255Z,61.99
2023-03-06T13:19:02.009Z,63.01
2023-03-06T13:20:44.387Z,62.90
2023-03-06T13:22:09.699Z,62.82
2023-03-06T13:23:52.532Z,62.38
2023-03-06T13:25:37.267Z,62.63
2023-03-06T13:27:02.761Z,62.59
2023-03-06T13:28:04.992Z,63.19
2023-03-06T13:29:51.648Z,61.85
2023-03-06T13:30:56.375Z,63.11
2023-03-06T13:32:19.730Z,62.38
2023-03-06T13:33:57.895Z,63.48
2023-03-06T13:34:59.856Z,63.11
2023-03-06T13:36:22.374Z,62.65
2023-03-06T13:37:53.303Z,62.88
2023-03-06T13:38:58.344Z,62.46
2023-03-06T13:40:27.317Z,62.12
2023-03-06T13:41:56.967Z,63.43
2023-03-06T13:43:18.418Z,62.63
2023-03-06T13:44:50.973Z,62.55
2023-03-06T13:45:53.323Z,62.42
2023-03-06T13:46:59.060Z,62.72
2023-03-06T13:49:26.777Z,62.50
2023-03-06T13:50:37.571Z,62.69
2023-03-06T13:51:43.117Z,63.21
2023-03-06T13:52:57.214Z,62.75
2023-03-06T13:54:31.326Z,62.39
2023-03-06T13:55:42.992Z,61.83
2023-03-06T13:57:08.090Z,62.66
2023-03-06T13:58:25.529Z,61.83
2023-03-06T14:00:09.828Z,62.59
2023-03-06T14:01:23.290Z,62.31
2023-03-06T14:02:54.698Z,62.26
2023-03-06T14:04:48.500Z,62.26
2023-03-06T14:05:52.595Z,63.13
2023-03-06T14:07:24.865Z,62.92
2023-03-06T14:08:31.717Z,62.55
2023-03-06T14:09:37.328Z,62.12
2023-03-06T14:10:40.524Z,62.99
2023-03-06T14:11:51.276Z,62.11
2023-03-06T14:13:06.790Z,62.21
2023-03-06T14:14:12.094Z,61.77
2023-03-06T14:15:20.544Z,61.77
2023-03-06T14:16:24.468Z,62.62
2023-03-06T14:17:30.554Z,61.76
2023-03-06T14:18:38.373Z,61.95